Map

Track Data

SID SEASON NUMBER BASIN SUBBASIN NAME ISO_TIME NATURE LAT LON WMO_WIND WMO_PRES WMO_AGENCY TRACK_TYPE DIST2LAND LANDFALL IFLAG USA_AGENCY USA_ATCF_ID USA_LAT USA_LON USA_RECORD USA_STATUS USA_WIND USA_PRES USA_SSHS USA_R34_NE USA_R34_SE USA_R34_SW USA_R34_NW USA_R50_NE USA_R50_SE USA_R50_SW USA_R50_NW USA_R64_NE USA_R64_SE USA_R64_SW USA_R64_NW USA_POCI USA_ROCI USA_RMW USA_EYE TOKYO_LAT TOKYO_LON TOKYO_GRADE TOKYO_WIND TOKYO_PRES TOKYO_R50_DIR TOKYO_R50_LONG TOKYO_R50_SHORT TOKYO_R30_DIR TOKYO_R30_LONG TOKYO_R30_SHORT TOKYO_LAND CMA_LAT CMA_LON CMA_CAT CMA_WIND CMA_PRES HKO_LAT HKO_LON HKO_CAT HKO_WIND HKO_PRES NEWDELHI_LAT NEWDELHI_LON NEWDELHI_GRADE NEWDELHI_WIND NEWDELHI_PRES NEWDELHI_CI NEWDELHI_DP NEWDELHI_POCI REUNION_LAT REUNION_LON REUNION_TYPE REUNION_WIND REUNION_PRES REUNION_TNUM REUNION_CI REUNION_RMW REUNION_R34_NE REUNION_R34_SE REUNION_R34_SW REUNION_R34_NW REUNION_R50_NE REUNION_R50_SE REUNION_R50_SW REUNION_R50_NW REUNION_R64_NE REUNION_R64_SE REUNION_R64_SW REUNION_R64_NW BOM_LAT BOM_LON BOM_TYPE BOM_WIND BOM_PRES BOM_TNUM BOM_CI BOM_RMW BOM_R34_NE BOM_R34_SE BOM_R34_SW BOM_R34_NW BOM_R50_NE BOM_R50_SE BOM_R50_SW BOM_R50_NW BOM_R64_NE BOM_R64_SE BOM_R64_SW BOM_R64_NW BOM_ROCI BOM_POCI BOM_EYE BOM_POS_METHOD BOM_PRES_METHOD NADI_LAT NADI_LON NADI_CAT NADI_WIND NADI_PRES WELLINGTON_LAT WELLINGTON_LON WELLINGTON_WIND WELLINGTON_PRES DS824_LAT DS824_LON DS824_STAGE DS824_WIND DS824_PRES TD9636_LAT TD9636_LON TD9636_STAGE TD9636_WIND TD9636_PRES TD9635_LAT TD9635_LON TD9635_WIND TD9635_PRES TD9635_ROCI NEUMANN_LAT NEUMANN_LON NEUMANN_CLASS NEUMANN_WIND NEUMANN_PRES MLC_LAT MLC_LON MLC_CLASS MLC_WIND MLC_PRES USA_GUST BOM_GUST BOM_GUST_PER REUNION_GUST REUNION_GUST_PER USA_SEAHGT USA_SEARAD_NE USA_SEARAD_SE USA_SEARAD_SW USA_SEARAD_NW STORM_SPEED STORM_DIR
1900032S20410 1900 2 SI MM NOT_NAMED 1900-01-31 18:00:00 NR -20.2000 50.4000 main 168 168 __________O___ -1 -20.2000 50.4000 7 4 133
1900032S20410 1900 2 SI MM NOT_NAMED 1900-01-31 21:00:00 NR -20.3328 50.5517 main 190 190 __________P___ -1 -20.3328 50.5517 7 4 134
1900032S20410 1900 2 SI MM NOT_NAMED 1900-02-01 00:00:00 NR -20.4825 50.7128 main 205 205 __________P___ -1 -20.4825 50.7128 7 5 136
1900032S20410 1900 2 SI MM NOT_NAMED 1900-02-01 03:00:00 NR -20.6659 50.8925 main 232 232 __________P___ -1 -20.6659 50.8925 7 6 139
1900032S20410 1900 2 SI MM NOT_NAMED 1900-02-01 06:00:00 NR -20.9000 51.1000 main 259 259 __________O___ -1 -20.9000 51.1000 7 7 141
1900032S20410 1900 2 SI MM NOT_NAMED 1900-02-01 09:00:00 NR -21.1941 51.3419 main 292 292 __________P___ -1 -21.1941 51.3419 7 8 143
1900032S20410 1900 2 SI MM NOT_NAMED 1900-02-01 12:00:00 NR -21.5275 51.6121 main 334 334 __________P___ -1 -21.5275 51.6121 7 9 142
1900032S20410 1900 2 SI MM NOT_NAMED 1900-02-01 15:00:00 NR -21.8722 51.9013 main 352 329 __________P___ -1 -21.8722 51.9013 7 9 141
1900032S20410 1900 2 SI MM NOT_NAMED 1900-02-01 18:00:00 NR -22.2000 52.2000 main 333 313 __________O___ -1 -22.2000 52.2000 7 8 137
1900032S20410 1900 2 SI MM NOT_NAMED 1900-02-01 21:00:00 NR -22.4633 52.4894 main 318 301 __________P___ -1 -22.4633 52.4894 7 7 133
1900032S20410 1900 2 SI MM NOT_NAMED 1900-02-02 00:00:00 NR -22.7073 52.7859 main 301 288 __________P___ -1 -22.7073 52.7859 7 7 131
1900032S20410 1900 2 SI MM NOT_NAMED 1900-02-02 03:00:00 NR -22.9476 53.0895 main 288 287 __________P___ -1 -22.9476 53.0895 7 8 131
1900032S20410 1900 2 SI MM NOT_NAMED 1900-02-02 06:00:00 NR -23.2000 53.4000 main 288 281 __________O___ -1 -23.2000 53.4000 7 8 133
1900032S20410 1900 2 SI MM NOT_NAMED 1900-02-02 09:00:00 NR -23.4854 53.7140 main 295 290 __________P___ -1 -23.4854 53.7140 7 8 135
1900032S20410 1900 2 SI MM NOT_NAMED 1900-02-02 12:00:00 NR -23.7847 54.0354 main 309 305 __________P___ -1 -23.7847 54.0354 7 9 136
1900032S20410 1900 2 SI MM NOT_NAMED 1900-02-02 15:00:00 NR -24.0917 54.3641 main 325 325 __________P___ -1 -24.0917 54.3641 7 9 135
1900032S20410 1900 2 SI MM NOT_NAMED 1900-02-02 18:00:00 NR -24.4000 54.7000 main 347 347 __________O___ -1 -24.4000 54.7000 7 9 135
1900032S20410 1900 2 SI MM NOT_NAMED 1900-02-02 21:00:00 NR -24.7038 55.0392 main 373 372 __________P___ -1 -24.7038 55.0392 7 9 134
1900032S20410 1900 2 SI MM NOT_NAMED 1900-02-03 00:00:00 NR -25.0072 55.3856 main 402 402 __________P___ -1 -25.0072 55.3856 7 9 134
1900032S20410 1900 2 SI MM NOT_NAMED 1900-02-03 03:00:00 NR -25.3069 55.7392 main 436 436 __________P___ -1 -25.3069 55.7392 7 9 133
1900032S20410 1900 2 SI MM NOT_NAMED 1900-02-03 06:00:00 NR -25.6000 56.1000 main 472 472 __________O___ -1 -25.6000 56.1000 7 9 131
1900032S20410 1900 2 SI MM NOT_NAMED 1900-02-03 09:00:00 NR -25.8819 56.4644 main 511 511 __________P___ -1 -25.8819 56.4644 7 9 130
1900032S20410 1900 2 SI MM NOT_NAMED 1900-02-03 12:00:00 NR -26.1571 56.8358 main 550 550 __________P___ -1 -26.1571 56.8358 7 9 129
1900032S20410 1900 2 SI MM NOT_NAMED 1900-02-03 15:00:00 NR -26.4287 57.2144 main 581 581 __________P___ -1 -26.4287 57.2144 7 9 128
1900032S20410 1900 2 SI MM NOT_NAMED 1900-02-03 18:00:00 NR -26.7000 57.6000 main 626 626 __________O___ -1 -26.7000 57.6000 7 9 128
1900032S20410 1900 2 SI MM NOT_NAMED 1900-02-03 21:00:00 NR -26.9733 57.9924 main 671 671 __________P___ -1 -26.9733 57.9924 7 9 128
1900032S20410 1900 2 SI MM NOT_NAMED 1900-02-04 00:00:00 NR -27.2485 58.3908 main 707 707 __________P___ -1 -27.2485 58.3908 7 9 128
1900032S20410 1900 2 SI MM NOT_NAMED 1900-02-04 03:00:00 NR -27.5243 58.7937 main 754 754 __________P___ -1 -27.5243 58.7937 7 9 128
1900032S20410 1900 2 SI MM NOT_NAMED 1900-02-04 06:00:00 NR -27.8000 59.2000 main 802 __________O___ -1 -27.8000 59.2000 7 9 127

About IBTrACS Database

This database is a web-friendly format of International Best Track Archive for Climate Stewardship (IBTrACS), a global best track data archive curated by NOAA dating back to 1842.

Updated: 2021-10-21